ローマ/フィウミチーノ の空港の天気 - METARとTAF

ローマ・レオナルド・ダ・ビンチ国際空港 ( LIRF / FCO ) - イタリア ローマ
飛行場実況気象(Metar)
観測時間08/25 20:50 CEST (08/25 18:50 UTC)
風向・風速北西 2m/s
視程10km以上
天気現象
なし
気温25℃
湿度83%
気圧1016hPa
METARLIRF 251850Z 31004KT CAVOK 25/22 Q1016 NOSIG
過去の天気等 Google飛行場航空写真 Wunderground天気予報

過去48時間のMETAR

飛行場予報(TAF)
発表時間: 8/25 19:00 CEST (8/25 17:00 UTC)
予報対象時間: 25日20時 CEST ~ 27日2時 CEST
風向・風速不定 3m/s
視程10km以上
全天の4割程度の雲 雲底高度 910m
26日12時 CEST ~ 26日14時 CEST に徐々に
風向・風速西南西 5m/s
26日20時 CEST ~ 26日22時 CEST に徐々に
風向・風速不定 3m/s
TAF LIRF 251700Z 2518/2624 VRB05KT 9999 SCT030
BECMG 2610/2612 24010KT
BECMG 2618/2620 VRB05KT